createdAt,value
2023-04-26T00:01:16.584Z,2.87
2023-04-26T00:03:45.938Z,4.23
2023-04-26T00:06:16.594Z,4.10
2023-04-26T00:08:45.600Z,3.23
2023-04-26T00:11:14.501Z,3.60
2023-04-26T00:13:43.628Z,3.00
2023-04-26T00:16:12.340Z,4.50
2023-04-26T00:18:41.256Z,3.80
2023-04-26T00:21:10.105Z,5.10
2023-04-26T00:23:40.757Z,2.43
2023-04-26T00:26:09.624Z,3.50
2023-04-26T00:28:38.475Z,2.80
2023-04-26T00:31:07.406Z,3.60
2023-04-26T00:33:36.470Z,3.80
2023-04-26T00:36:05.555Z,3.40
2023-04-26T00:38:34.400Z,4.00
2023-04-26T00:41:05.465Z,4.07
2023-04-26T00:43:34.078Z,2.70
2023-04-26T00:46:02.961Z,2.57
2023-04-26T00:48:31.880Z,4.13
2023-04-26T00:51:01.435Z,4.60
2023-04-26T00:53:30.882Z,4.10
2023-04-26T00:55:59.907Z,3.43
2023-04-26T00:58:30.423Z,4.27
2023-04-26T01:00:59.507Z,3.60
2023-04-26T01:03:28.941Z,4.80
2023-04-26T01:05:58.589Z,3.77
2023-04-26T01:08:27.762Z,2.63
2023-04-26T01:10:57.432Z,3.80
2023-04-26T01:13:27.632Z,3.27
2023-04-26T01:15:58.787Z,2.80
2023-04-26T01:18:27.950Z,4.27
2023-04-26T01:20:56.933Z,3.50
2023-04-26T01:23:27.364Z,3.33
2023-04-26T01:25:56.596Z,3.00
2023-04-26T01:28:25.877Z,3.57
2023-04-26T01:30:55.073Z,3.37
2023-04-26T01:33:24.260Z,2.97
2023-04-26T01:35:53.358Z,3.93
2023-04-26T01:38:22.507Z,3.80
2023-04-26T01:40:53.034Z,2.17
2023-04-26T01:43:23.492Z,3.80
2023-04-26T01:45:52.688Z,3.17
2023-04-26T01:48:21.832Z,4.30
2023-04-26T01:50:51.001Z,4.93
2023-04-26T01:53:19.841Z,4.57
2023-04-26T01:55:48.515Z,3.10
2023-04-26T01:58:18.500Z,3.67
2023-04-26T02:00:47.000Z,3.10
2023-04-26T02:03:15.821Z,3.33
2023-04-26T02:05:45.008Z,4.27
2023-04-26T02:08:13.698Z,4.13
2023-04-26T02:10:42.813Z,4.47
2023-04-26T02:13:11.886Z,4.00
2023-04-26T02:15:42.185Z,2.90
2023-04-26T02:18:11.589Z,2.80
2023-04-26T02:20:43.079Z,3.80
2023-04-26T02:23:12.005Z,4.40
2023-04-26T02:25:41.850Z,4.47
2023-04-26T02:28:10.594Z,3.33
2023-04-26T02:30:39.130Z,4.70
2023-04-26T02:33:09.822Z,4.70
2023-04-26T02:35:38.710Z,4.97
2023-04-26T02:38:07.471Z,4.07
2023-04-26T02:40:36.146Z,5.30
2023-04-26T02:43:05.226Z,3.77
2023-04-26T02:45:34.360Z,3.50
2023-04-26T02:48:03.580Z,6.03
2023-04-26T02:50:34.359Z,4.23
2023-04-26T02:53:04.582Z,3.60
2023-04-26T02:55:33.959Z,4.57
2023-04-26T02:58:03.240Z,5.50
2023-04-26T03:00:34.199Z,3.60
2023-04-26T03:03:03.993Z,8.63
2023-04-26T03:05:34.582Z,5.07
2023-04-26T03:08:03.680Z,5.83
2023-04-26T03:10:32.829Z,4.80
2023-04-26T03:13:04.450Z,7.43
2023-04-26T03:15:33.613Z,3.90
2023-04-26T03:18:02.843Z,5.27
2023-04-26T03:20:32.103Z,4.43
2023-04-26T03:23:02.792Z,4.60
2023-04-26T03:25:32.072Z,3.80
2023-04-26T03:28:01.258Z,5.50
2023-04-26T03:30:30.717Z,5.67
2023-04-26T03:33:00.044Z,4.43
2023-04-26T03:35:29.175Z,3.67
2023-04-26T03:37:58.783Z,2.93
2023-04-26T03:40:29.551Z,4.40
2023-04-26T03:42:58.753Z,4.70
2023-04-26T03:45:28.048Z,3.87
2023-04-26T03:47:57.797Z,5.07
2023-04-26T03:50:27.375Z,3.67
2023-04-26T03:52:56.561Z,3.70
2023-04-26T03:55:26.249Z,5.77
2023-04-26T03:57:56.847Z,4.63
2023-04-26T04:00:26.363Z,2.77
2023-04-26T04:02:56.298Z,4.40
2023-04-26T04:05:26.018Z,5.57
2023-04-26T04:07:56.512Z,5.20
2023-04-26T04:10:26.074Z,5.43
2023-04-26T04:12:56.966Z,4.97
2023-04-26T04:15:26.812Z,4.10
2023-04-26T04:17:56.324Z,6.77
2023-04-26T04:20:25.805Z,4.33
2023-04-26T04:22:56.149Z,4.90
2023-04-26T04:25:25.575Z,5.70
2023-04-26T04:27:55.204Z,3.50
2023-04-26T04:30:28.269Z,6.27
2023-04-26T04:32:59.394Z,5.40
2023-04-26T04:35:30.250Z,4.30
2023-04-26T04:37:59.778Z,3.80
2023-04-26T04:40:29.910Z,3.40
2023-04-26T04:43:00.919Z,3.90
2023-04-26T04:45:31.907Z,4.80
2023-04-26T04:48:01.296Z,3.87
2023-04-26T04:50:32.100Z,4.57
2023-04-26T04:53:01.519Z,5.57
2023-04-26T04:55:30.913Z,5.40
2023-04-26T04:58:00.210Z,6.27
2023-04-26T05:00:31.492Z,5.87
2023-04-26T05:03:02.843Z,5.03
2023-04-26T05:05:32.233Z,6.10
2023-04-26T05:08:01.562Z,5.30
2023-04-26T05:10:30.968Z,5.03
2023-04-26T05:13:00.362Z,6.60
2023-04-26T05:15:29.177Z,4.00
2023-04-26T05:17:59.432Z,4.57
2023-04-26T05:20:30.964Z,4.33
2023-04-26T05:23:00.126Z,5.93
2023-04-26T05:25:29.399Z,5.40
2023-04-26T05:27:58.665Z,6.20
2023-04-26T05:30:28.009Z,5.77
2023-04-26T05:32:57.627Z,5.63
2023-04-26T05:35:26.826Z,6.40
2023-04-26T05:37:57.494Z,6.90
2023-04-26T05:40:26.769Z,7.57
2023-04-26T05:42:55.945Z,6.37
2023-04-26T05:45:25.306Z,5.77
2023-04-26T05:47:53.476Z,4.80
2023-04-26T05:50:22.851Z,7.30
2023-04-26T05:52:52.088Z,6.63
2023-04-26T05:55:22.834Z,5.63
2023-04-26T05:57:52.120Z,5.80
2023-04-26T06:00:23.651Z,5.03
2023-04-26T06:02:53.148Z,7.50
2023-04-26T06:05:23.209Z,5.20
2023-04-26T06:07:53.242Z,5.80
2023-04-26T06:10:22.914Z,6.37
2023-04-26T06:12:51.091Z,5.20
2023-04-26T06:15:19.222Z,6.00
2023-04-26T06:17:47.408Z,5.13
2023-04-26T06:20:15.445Z,6.70
2023-04-26T06:22:43.499Z,6.10
2023-04-26T06:25:11.713Z,6.30
2023-04-26T06:27:44.328Z,5.77
2023-04-26T06:30:16.018Z,6.23
2023-04-26T06:32:47.245Z,6.67
2023-04-26T06:35:18.384Z,7.30
2023-04-26T06:37:49.611Z,6.93
2023-04-26T06:40:20.962Z,5.50
2023-04-26T06:42:52.319Z,6.60
2023-04-26T06:45:23.480Z,6.00
2023-04-26T06:47:57.210Z,6.53
2023-04-26T06:50:28.396Z,5.20
2023-04-26T06:52:59.536Z,5.03
2023-04-26T06:55:30.962Z,4.40
2023-04-26T06:58:01.817Z,6.30
2023-04-26T07:00:33.065Z,5.07
2023-04-26T07:03:02.752Z,5.03
2023-04-26T07:05:32.512Z,5.67
2023-04-26T07:08:02.047Z,5.20
2023-04-26T07:10:31.721Z,4.43
2023-04-26T07:13:03.304Z,4.80
2023-04-26T07:15:33.182Z,4.37
2023-04-26T07:18:02.617Z,4.60
2023-04-26T07:20:31.953Z,4.10
2023-04-26T07:23:01.361Z,4.03
2023-04-26T07:25:30.683Z,4.63
2023-04-26T07:28:00.101Z,3.57
2023-04-26T07:30:32.530Z,2.80
2023-04-26T07:33:03.738Z,2.50
2023-04-26T07:35:35.276Z,3.27
2023-04-26T07:38:04.865Z,2.17
2023-04-26T07:40:34.200Z,2.30
2023-04-26T07:43:03.525Z,2.67
2023-04-26T07:45:35.291Z,3.17
2023-04-26T07:48:04.633Z,3.10
2023-04-26T07:50:34.126Z,2.73
2023-04-26T07:53:03.456Z,3.40
2023-04-26T07:55:32.782Z,3.50
2023-04-26T07:58:02.468Z,2.93
2023-04-26T08:00:31.843Z,2.77
2023-04-26T08:03:03.589Z,4.63
2023-04-26T08:05:33.106Z,3.60
2023-04-26T08:08:02.789Z,4.20
2023-04-26T08:10:32.230Z,3.60
2023-04-26T08:13:03.458Z,2.93
2023-04-26T08:15:32.823Z,3.60
2023-04-26T08:18:03.665Z,3.63
2023-04-26T08:20:33.983Z,3.63
2023-04-26T08:23:03.323Z,3.50
2023-04-26T08:25:34.766Z,3.03
2023-04-26T08:28:04.975Z,3.20
2023-04-26T08:30:35.667Z,3.70
2023-04-26T08:33:05.546Z,4.20
2023-04-26T08:35:34.854Z,3.17
2023-04-26T08:38:04.160Z,3.57
2023-04-26T08:40:33.884Z,4.13
2023-04-26T08:43:03.214Z,3.70
2023-04-26T08:45:33.365Z,3.20
2023-04-26T08:48:06.101Z,2.90
2023-04-26T08:50:37.287Z,3.97
2023-04-26T08:53:06.845Z,3.40
2023-04-26T08:55:35.658Z,2.83
2023-04-26T08:58:05.557Z,3.30
2023-04-26T09:00:35.063Z,4.63
2023-04-26T09:03:04.470Z,4.00
2023-04-26T09:05:33.976Z,4.00
2023-04-26T09:08:05.277Z,2.93
2023-04-26T09:10:35.550Z,3.10
2023-04-26T09:13:03.925Z,2.90
2023-04-26T09:15:33.361Z,2.90
2023-04-26T09:18:17.676Z,3.80
2023-04-26T09:20:47.767Z,2.80
2023-04-26T09:23:20.889Z,2.50
2023-04-26T09:25:52.046Z,3.33
2023-04-26T09:28:26.446Z,3.27
2023-04-26T09:30:57.695Z,2.93
2023-04-26T09:33:28.942Z,2.80
2023-04-26T09:35:58.749Z,2.53
2023-04-26T09:38:31.362Z,3.57
2023-04-26T09:41:02.257Z,3.00
2023-04-26T09:43:39.848Z,3.07
2023-04-26T09:46:09.555Z,3.00
2023-04-26T09:48:41.349Z,3.03
2023-04-26T09:51:12.628Z,3.50
2023-04-26T09:53:46.959Z,2.90
2023-04-26T09:56:19.659Z,5.40
2023-04-26T09:58:59.155Z,2.93
2023-04-26T10:01:31.609Z,3.30
2023-04-26T10:04:04.689Z,3.07
2023-04-26T10:06:34.969Z,3.33
2023-04-26T10:09:09.354Z,2.50
2023-04-26T10:11:40.570Z,3.20
2023-04-26T10:14:11.859Z,2.87
2023-04-26T10:16:41.850Z,3.00
2023-04-26T10:19:11.423Z,2.30
2023-04-26T10:21:40.969Z,3.30
2023-04-26T10:24:13.139Z,2.73
2023-04-26T10:26:53.302Z,2.90
2023-04-26T10:29:23.424Z,2.67
2023-04-26T10:32:09.623Z,2.30
2023-04-26T10:34:39.788Z,3.00
2023-04-26T10:37:09.829Z,2.27
2023-04-26T10:39:40.934Z,3.20
2023-04-26T10:42:27.693Z,2.47
2023-04-26T10:44:59.477Z,2.70
2023-04-26T10:47:33.205Z,2.70
2023-04-26T10:50:11.669Z,2.13
2023-04-26T10:52:43.568Z,2.27
2023-04-26T10:55:16.198Z,2.30
2023-04-26T10:57:54.017Z,4.27
2023-04-26T11:00:31.985Z,3.03
2023-04-26T11:03:15.234Z,2.23
2023-04-26T11:05:54.723Z,2.50
2023-04-26T11:08:27.205Z,2.20
2023-04-26T11:11:02.327Z,2.00
2023-04-26T11:13:32.300Z,2.17
2023-04-26T11:16:04.280Z,2.50
2023-04-26T11:18:34.391Z,2.07
2023-04-26T11:21:04.303Z,2.70
2023-04-26T11:23:34.220Z,2.30
2023-04-26T11:26:08.358Z,2.43
2023-04-26T11:28:38.963Z,2.27
2023-04-26T11:31:09.523Z,2.77
2023-04-26T11:33:39.096Z,2.50
2023-04-26T11:36:08.915Z,2.60
2023-04-26T11:38:38.473Z,2.23
2023-04-26T11:41:10.478Z,2.40
2023-04-26T11:43:40.630Z,1.87
2023-04-26T11:46:11.150Z,1.97
2023-04-26T11:48:41.902Z,2.00
2023-04-26T11:51:11.929Z,2.40
2023-04-26T11:53:41.989Z,2.20
2023-04-26T11:56:19.154Z,2.20
2023-04-26T11:58:49.329Z,2.30
2023-04-26T12:01:26.731Z,2.30
2023-04-26T12:03:59.140Z,2.57
2023-04-26T12:06:32.890Z,2.10
2023-04-26T12:09:06.168Z,2.30
2023-04-26T12:11:37.014Z,1.90
2023-04-26T12:14:07.933Z,2.23
2023-04-26T12:16:38.961Z,2.30
2023-04-26T12:19:08.850Z,2.40
2023-04-26T12:21:43.504Z,1.90
2023-04-26T12:24:25.790Z,1.90
2023-04-26T12:26:56.649Z,1.70
2023-04-26T12:29:26.155Z,1.87
2023-04-26T12:31:55.829Z,1.90
2023-04-26T12:34:26.301Z,2.20
2023-04-26T12:36:57.024Z,2.30
2023-04-26T12:39:25.399Z,1.87
2023-04-26T12:41:55.186Z,2.70
2023-04-26T12:44:23.554Z,2.30
2023-04-26T12:46:52.329Z,1.73
2023-04-26T12:49:22.580Z,2.50
2023-04-26T12:51:52.852Z,2.50
2023-04-26T12:54:21.221Z,1.90
2023-04-26T12:56:54.859Z,2.10
2023-04-26T12:59:27.681Z,2.17
2023-04-26T13:01:57.279Z,2.27
2023-04-26T13:04:29.019Z,2.40
2023-04-26T13:07:00.388Z,2.30
2023-04-26T13:09:29.987Z,2.00
2023-04-26T13:11:59.424Z,1.57
2023-04-26T13:14:30.348Z,2.20
2023-04-26T13:16:59.754Z,2.03
2023-04-26T13:19:29.106Z,2.13
2023-04-26T13:21:58.440Z,1.80
2023-04-26T13:24:27.716Z,2.73
2023-04-26T13:26:57.866Z,2.33
2023-04-26T13:29:27.265Z,1.93
2023-04-26T13:31:59.149Z,2.10
2023-04-26T13:34:28.648Z,1.90
2023-04-26T13:37:01.801Z,2.20
2023-04-26T13:39:30.565Z,1.83
2023-04-26T13:41:59.113Z,2.13
2023-04-26T13:44:31.121Z,1.77
2023-04-26T13:47:03.816Z,2.00
2023-04-26T13:49:34.855Z,1.70
2023-04-26T13:52:04.396Z,2.27
2023-04-26T13:54:34.019Z,1.70
2023-04-26T13:57:03.896Z,1.77
2023-04-26T13:59:32.824Z,2.17
2023-04-26T14:02:03.720Z,2.30
2023-04-26T14:04:32.995Z,2.00
2023-04-26T14:07:01.139Z,1.40
2023-04-26T14:09:29.195Z,2.40
2023-04-26T14:12:08.066Z,1.67
2023-04-26T14:14:38.342Z,2.07
2023-04-26T14:17:09.236Z,1.90
2023-04-26T14:19:38.548Z,2.20
2023-04-26T14:22:09.958Z,1.57
2023-04-26T14:24:39.288Z,1.97
2023-04-26T14:27:08.836Z,2.07
2023-04-26T14:29:38.361Z,2.03
2023-04-26T14:32:09.198Z,2.63
2023-04-26T14:34:39.220Z,1.93
2023-04-26T14:37:08.645Z,2.07
2023-04-26T14:39:38.628Z,2.03
2023-04-26T14:42:07.165Z,2.13
2023-04-26T14:44:36.707Z,2.40
2023-04-26T14:47:06.985Z,2.63
2023-04-26T14:49:39.748Z,2.90
2023-04-26T14:52:09.257Z,2.67
2023-04-26T14:54:42.576Z,2.00
2023-04-26T14:57:12.205Z,2.17
2023-04-26T14:59:42.172Z,2.07
2023-04-26T15:02:11.661Z,2.17
2023-04-26T15:04:42.493Z,2.43
2023-04-26T15:07:20.993Z,2.60
2023-04-26T15:09:57.973Z,1.90
2023-04-26T15:12:27.969Z,3.50
2023-04-26T15:14:57.336Z,1.83
2023-04-26T15:17:29.326Z,1.53
2023-04-26T15:19:59.052Z,1.87
2023-04-26T15:22:27.449Z,2.20
2023-04-26T15:24:55.767Z,2.10
2023-04-26T15:27:25.093Z,2.00
2023-04-26T15:29:53.428Z,2.20
2023-04-26T15:32:21.788Z,2.00
2023-04-26T15:34:50.459Z,1.90
2023-04-26T15:37:20.206Z,1.70
2023-04-26T15:39:48.778Z,1.57
2023-04-26T15:42:17.129Z,1.90
2023-04-26T15:44:45.470Z,2.10
2023-04-26T15:47:13.921Z,1.67
2023-04-26T15:49:42.270Z,1.70
2023-04-26T15:52:10.674Z,2.17
2023-04-26T15:54:40.787Z,1.60
2023-04-26T15:57:09.185Z,1.63
2023-04-26T15:59:37.518Z,1.77
2023-04-26T16:02:06.252Z,1.93
2023-04-26T16:04:34.916Z,2.00
2023-04-26T16:07:03.691Z,2.30
2023-04-26T16:09:32.660Z,3.10
2023-04-26T16:12:03.591Z,2.73
2023-04-26T16:14:32.373Z,2.17
2023-04-26T16:17:01.617Z,1.83
2023-04-26T16:19:30.027Z,1.40
2023-04-26T16:21:58.410Z,1.67
2023-04-26T16:24:26.723Z,2.17
2023-04-26T16:26:55.075Z,1.97
2023-04-26T16:29:25.163Z,2.00
2023-04-26T16:31:53.892Z,2.80
2023-04-26T16:34:22.432Z,2.20
2023-04-26T16:36:50.858Z,2.10
2023-04-26T16:39:19.513Z,2.67
2023-04-26T16:41:47.820Z,3.10
2023-04-26T16:44:16.729Z,3.00
2023-04-26T16:46:46.882Z,3.40
2023-04-26T16:49:15.206Z,4.50
2023-04-26T16:51:44.463Z,3.13
2023-04-26T16:54:12.881Z,3.33
2023-04-26T16:56:41.208Z,3.20
2023-04-26T16:59:09.628Z,3.27
2023-04-26T17:01:38.072Z,3.40
2023-04-26T17:04:09.219Z,2.70
2023-04-26T17:06:39.264Z,3.73
2023-04-26T17:09:08.326Z,3.03
2023-04-26T17:11:37.472Z,3.10
2023-04-26T17:14:06.231Z,2.83
2023-04-26T17:16:34.654Z,3.27
2023-04-26T17:19:03.815Z,3.10
2023-04-26T17:21:33.554Z,4.30
2023-04-26T17:24:01.894Z,3.83
2023-04-26T17:26:30.399Z,3.53
2023-04-26T17:28:58.747Z,3.03
2023-04-26T17:31:27.177Z,3.63
2023-04-26T17:33:55.692Z,2.93
2023-04-26T17:36:24.072Z,3.60
2023-04-26T17:38:53.874Z,4.13
2023-04-26T17:41:23.726Z,3.20
2023-04-26T17:43:52.083Z,4.47
2023-04-26T17:46:20.565Z,2.93
2023-04-26T17:48:49.039Z,4.30
2023-04-26T17:51:17.430Z,4.17
2023-04-26T17:53:45.924Z,3.70
2023-04-26T17:56:15.637Z,3.87
2023-04-26T17:58:44.008Z,4.40
2023-04-26T18:01:12.367Z,2.97
2023-04-26T18:03:41.339Z,3.97
2023-04-26T18:06:09.827Z,3.67
2023-04-26T18:08:38.200Z,3.20
2023-04-26T18:11:06.595Z,3.37
2023-04-26T18:13:36.325Z,3.23
2023-04-26T18:16:04.642Z,3.33
2023-04-26T18:18:32.964Z,4.73
2023-04-26T18:21:01.340Z,3.57
2023-04-26T18:23:29.691Z,6.33
2023-04-26T18:25:58.034Z,9.57
2023-04-26T18:28:26.704Z,5.00
2023-04-26T18:30:59.324Z,3.23
2023-04-26T18:33:27.776Z,3.00
2023-04-26T18:35:56.196Z,3.60
2023-04-26T18:38:24.566Z,3.10
2023-04-26T18:40:52.928Z,4.23
2023-04-26T18:43:21.525Z,4.07
2023-04-26T18:45:51.723Z,4.77
2023-04-26T18:48:21.519Z,4.13
2023-04-26T18:50:52.859Z,4.77
2023-04-26T18:53:22.291Z,3.53
2023-04-26T18:55:53.078Z,3.50
2023-04-26T18:58:21.504Z,3.83
2023-04-26T19:00:50.544Z,3.33
2023-04-26T19:03:19.197Z,3.87
2023-04-26T19:05:49.211Z,3.70
2023-04-26T19:08:18.223Z,3.47
2023-04-26T19:10:46.641Z,2.90
2023-04-26T19:13:14.989Z,4.20
2023-04-26T19:15:43.346Z,4.13
2023-04-26T19:18:11.706Z,4.70
2023-04-26T19:20:40.194Z,5.40
2023-04-26T19:23:09.905Z,4.80
2023-04-26T19:25:38.284Z,4.00
2023-04-26T19:28:06.660Z,5.00
2023-04-26T19:30:35.009Z,2.97
2023-04-26T19:33:03.424Z,2.80
2023-04-26T19:35:34.926Z,2.70
2023-04-26T19:38:05.318Z,3.03
2023-04-26T19:40:42.675Z,2.60
2023-04-26T19:43:11.210Z,2.90
2023-04-26T19:45:40.981Z,2.13
2023-04-26T19:48:10.778Z,3.60
2023-04-26T19:50:42.493Z,2.90
2023-04-26T19:53:10.907Z,2.80
2023-04-26T19:55:40.988Z,2.70
2023-04-26T19:58:10.429Z,2.50
2023-04-26T20:00:40.380Z,2.40
2023-04-26T20:03:09.078Z,2.40
2023-04-26T20:05:37.677Z,2.70
2023-04-26T20:08:06.153Z,3.33
2023-04-26T20:10:34.800Z,4.67
2023-04-26T20:13:04.532Z,2.27
2023-04-26T20:15:33.864Z,2.70
2023-04-26T20:18:02.984Z,3.77
2023-04-26T20:20:31.513Z,3.47
2023-04-26T20:22:59.898Z,3.13
2023-04-26T20:25:28.305Z,2.63
2023-04-26T20:27:57.478Z,2.83
2023-04-26T20:30:29.327Z,3.13
2023-04-26T20:32:57.685Z,2.97
2023-04-26T20:35:26.132Z,3.07
2023-04-26T20:37:54.514Z,3.07
2023-04-26T20:40:23.787Z,2.93
2023-04-26T20:42:52.403Z,2.67
2023-04-26T20:45:20.858Z,3.43
2023-04-26T20:47:50.587Z,3.33
2023-04-26T20:50:19.089Z,2.10
2023-04-26T20:52:47.513Z,2.63
2023-04-26T20:55:16.932Z,2.73
2023-04-26T20:57:45.297Z,3.30
2023-04-26T21:00:14.063Z,2.50
2023-04-26T21:02:42.694Z,3.33
2023-04-26T21:05:12.764Z,2.80
2023-04-26T21:07:41.103Z,2.90
2023-04-26T21:10:10.092Z,3.50
2023-04-26T21:12:38.455Z,3.20
2023-04-26T21:15:07.386Z,3.47
2023-04-26T21:17:36.265Z,2.77
2023-04-26T21:20:04.848Z,2.87
2023-04-26T21:22:34.554Z,2.97
2023-04-26T21:25:03.620Z,2.80
2023-04-26T21:27:32.010Z,2.47
2023-04-26T21:30:00.381Z,2.47
2023-04-26T21:32:28.710Z,3.30
2023-04-26T21:34:57.060Z,3.00
2023-04-26T21:37:25.966Z,2.60
2023-04-26T21:39:55.725Z,4.27
2023-04-26T21:42:24.045Z,3.20
2023-04-26T21:44:52.385Z,3.40
2023-04-26T21:47:21.060Z,3.57
2023-04-26T21:49:51.001Z,3.50
2023-04-26T21:52:19.842Z,3.00
2023-04-26T21:54:48.205Z,3.50
2023-04-26T21:57:20.154Z,3.20
2023-04-26T21:59:48.487Z,2.97
2023-04-26T22:02:16.909Z,2.80
2023-04-26T22:04:45.295Z,3.13
2023-04-26T22:07:13.660Z,3.03
2023-04-26T22:09:41.982Z,2.60
2023-04-26T22:12:10.427Z,3.40
2023-04-26T22:14:40.143Z,2.80
2023-04-26T22:17:08.650Z,2.60
2023-04-26T22:19:37.025Z,3.90
2023-04-26T22:22:05.438Z,2.20
2023-04-26T22:24:33.775Z,2.60
2023-04-26T22:27:02.345Z,3.53
2023-04-26T22:29:30.888Z,2.53
2023-04-26T22:32:00.686Z,3.20
2023-04-26T22:34:29.194Z,2.40
2023-04-26T22:37:03.467Z,2.60
2023-04-26T22:39:38.212Z,2.97
2023-04-26T22:42:06.711Z,3.30
2023-04-26T22:44:35.147Z,4.17
2023-04-26T22:47:04.865Z,2.60
2023-04-26T22:49:33.189Z,3.60
2023-04-26T22:52:09.440Z,2.80
2023-04-26T22:54:42.829Z,2.60
2023-04-26T22:57:11.244Z,2.73
2023-04-26T22:59:39.604Z,3.77
2023-04-26T23:02:09.372Z,2.17
2023-04-26T23:04:37.809Z,2.17
2023-04-26T23:07:06.139Z,2.70
2023-04-26T23:09:34.537Z,2.70
2023-04-26T23:12:03.328Z,2.77
2023-04-26T23:14:31.804Z,2.10
2023-04-26T23:17:00.326Z,2.40
2023-04-26T23:19:30.194Z,2.73
2023-04-26T23:21:58.554Z,2.90
2023-04-26T23:24:26.975Z,3.07
2023-04-26T23:26:55.588Z,2.87
2023-04-26T23:29:23.885Z,3.03
2023-04-26T23:31:52.290Z,3.23
2023-04-26T23:34:20.760Z,2.97
2023-04-26T23:36:50.454Z,2.63
2023-04-26T23:39:18.963Z,3.37
2023-04-26T23:41:47.276Z,2.40
2023-04-26T23:44:16.731Z,3.30
2023-04-26T23:46:45.103Z,3.30
2023-04-26T23:49:13.806Z,2.97
2023-04-26T23:51:42.514Z,3.30
2023-04-26T23:54:12.357Z,3.27
2023-04-26T23:56:40.822Z,3.57
2023-04-26T23:59:09.129Z,2.80
